Annville, Pennsylvania
Current Conditions -  °F | °C
As of 12:58 PM on Saturday 20 Dec 2014 (Local Time) from KMUI Reporting Station
Overcast Overcast  
Wind Chill: 33°   Ceiling: 3000
Heat Index: 33°   Visibility: 10mi
Dew Point: 20°   Wind: 3mph
Humidity: 59%   Direction: 160°SSE
Pressure: 30.25"   Gusts: NA
Location:  40.33°N, 76.51°W
Report Text: KMUI 201758Z AUTO 16003KT 10SM OVC030 01/M07 A3025 RMK AO2 SLP252 T00051066 10006 21020 57017
Loading
Personal Weather Stations






























Interactive Weather Map New forecast layout! Learn more

10-Day Weather Forecast

Advertisements
Track Severe Weather on mobile